Time;durP1;ratioP1;P1;durP2;ratioP2;P2;SDS_P1;SDS_P2;PMS_P1;PMS_P2;Temp;Humidity;BMP_temperature;BMP_pressure;BME280_temperature;BME280_humidity;BME280_pressure;Samples;Min_cycle;Max_cycle;Signal;HPM_P1;HPM_P2
2022/03/21 00:02:18;;;;;;;32.55;16.70;;;;;;;-0.13;48.56;103341.53;1651422;86;25791;-76
2022/03/21 00:04:44;;;;;;;34.18;17.60;;;;;;;-0.16;48.65;103338.16;1628575;87;25951;-77
2022/03/21 00:07:11;;;;;;;35.15;18.37;;;;;;;-0.17;48.62;103335.13;1645417;85;25947;-77
2022/03/21 00:09:37;;;;;;;36.53;17.40;;;;;;;-0.19;48.71;103338.25;1638758;87;25940;-77
2022/03/21 00:12:04;;;;;;;34.90;18.05;;;;;;;-0.21;48.68;103338.75;1640533;86;27471;-77
2022/03/21 00:14:30;;;;;;;36.15;16.60;;;;;;;-0.22;48.66;103341.00;1640408;87;26222;-77
2022/03/21 00:16:59;;;;;;;33.20;16.32;;;;;;;-0.25;48.86;103344.59;1639428;85;26453;-77
2022/03/21 00:19:26;;;;;;;36.33;16.80;;;;;;;-0.28;49.00;103342.53;1638112;87;25822;-77
2022/03/21 00:21:52;;;;;;;30.40;15.95;;;;;;;-0.31;49.16;103339.98;1639111;87;25837;-76
2022/03/21 00:24:18;;;;;;;25.50;15.78;;;;;;;-0.37;49.27;103337.11;1639463;87;28743;-77
2022/03/21 00:26:44;;;;;;;29.63;15.00;;;;;;;-0.42;49.50;103339.02;1640747;85;25950;-76
2022/03/21 00:29:14;;;;;;;29.32;16.02;;;;;;;-0.45;49.56;103343.05;1639360;87;25869;-76
2022/03/21 00:31:40;;;;;;;35.20;17.77;;;;;;;-0.51;49.81;103335.36;1620232;87;25868;-77
2022/03/21 00:34:07;;;;;;;34.10;17.27;;;;;;;-0.52;49.77;103336.28;1638971;87;26580;-77
2022/03/21 00:36:34;;;;;;;29.57;15.68;;;;;;;-0.50;49.89;103337.09;1608832;87;28292;-77
2022/03/21 00:39:00;;;;;;;29.57;16.20;;;;;;;-0.48;49.80;103336.59;1612009;88;25378;-77
2022/03/21 00:41:28;;;;;;;31.10;17.52;;;;;;;-0.49;49.89;103340.12;1614740;88;25923;-76
2022/03/21 00:43:55;;;;;;;29.95;17.05;;;;;;;-0.51;49.99;103339.78;1638490;87;26586;-76
2022/03/21 00:46:21;;;;;;;35.78;17.25;;;;;;;-0.64;50.08;103324.81;1637135;86;26002;-76
2022/03/21 00:48:47;;;;;;;32.25;16.90;;;;;;;-0.60;50.11;103335.68;1639495;85;27474;-76
2022/03/21 00:51:13;;;;;;;39.45;17.85;;;;;;;-0.70;50.29;103334.67;1638738;87;25779;-75
2022/03/21 00:53:39;;;;;;;37.42;17.20;;;;;;;-0.77;50.44;103333.16;1638814;87;25865;-76
2022/03/21 00:56:06;;;;;;;43.28;19.57;;;;;;;-0.80;50.70;103332.80;1614329;87;26646;-76
2022/03/21 00:58:32;;;;;;;38.38;19.80;;;;;;;-0.83;50.75;103333.75;1639078;87;26224;-75
2022/03/21 01:00:58;;;;;;;38.58;20.08;;;;;;;-0.93;50.79;103323.11;1640877;86;27470;-78
2022/03/21 01:03:24;;;;;;;44.00;22.65;;;;;;;-0.84;51.14;103343.02;1638424;87;25833;-77
2022/03/21 01:05:51;;;;;;;53.83;24.00;;;;;;;-0.84;51.40;103336.44;1641522;87;25968;-76
2022/03/21 01:08:17;;;;;;;45.95;23.77;;;;;;;-0.85;51.57;103339.96;1610221;87;26495;-77
2022/03/21 01:10:43;;;;;;;44.20;22.98;;;;;;;-0.87;51.75;103344.41;1606370;88;25772;-76
2022/03/21 01:13:09;;;;;;;46.68;23.90;;;;;;;-0.90;51.95;103340.58;1607982;88;27692;-77
2022/03/21 01:15:36;;;;;;;52.17;24.35;;;;;;;-0.93;51.81;103341.52;1606442;88;25946;-77
2022/03/21 01:18:02;;;;;;;49.75;25.10;;;;;;;-0.93;51.99;103339.34;1610492;87;25823;-76
2022/03/21 01:20:29;;;;;;;51.15;24.77;;;;;;;-0.92;52.06;103337.97;1610929;88;25861;-77
2022/03/21 01:22:55;;;;;;;52.05;25.68;;;;;;;-0.92;52.06;103337.97;1638080;87;25746;-77
2022/03/21 01:25:21;;;;;;;56.08;26.90;;;;;;;-0.96;52.19;103335.47;1606274;88;27624;-77
2022/03/21 01:27:48;;;;;;;60.25;29.40;;;;;;;-0.98;52.25;103338.16;1607792;87;25895;-77
2022/03/21 01:30:16;;;;;;;62.67;30.77;;;;;;;-0.98;52.21;103333.34;1610504;88;25874;-77
2022/03/21 01:32:43;;;;;;;59.15;31.60;;;;;;;-0.96;52.29;103336.78;1608339;88;25931;-77
2022/03/21 01:35:14;;;;;;;69.00;32.67;;;;;;;-0.91;52.47;103344.09;1606246;88;26015;-76
2022/03/21 01:37:40;;;;;;;65.80;32.93;;;;;;;-0.89;52.60;103343.59;1608882;87;27519;-77
2022/03/21 01:40:09;;;;;;;69.75;33.15;;;;;;;-0.88;52.61;103341.39;1614846;88;25937;-77
2022/03/21 01:42:41;;;;;;;63.30;34.08;;;;;;;-0.90;52.69;103340.09;1645743;85;25828;-77
2022/03/21 01:45:08;;;;;;;72.30;32.95;;;;;;;-0.95;52.82;103325.38;1638044;85;25857;-78
2022/03/21 01:47:34;;;;;;;63.28;32.83;;;;;;;-0.88;52.70;103338.75;1646960;85;26492;-77
2022/03/21 01:50:04;;;;;;;68.47;34.48;;;;;;;-0.88;52.63;103334.81;1627434;85;28370;-77
2022/03/21 01:52:31;;;;;;;63.15;33.40;;;;;;;-0.89;52.86;103332.63;1650521;85;25353;-76
2022/03/21 01:57:44;;;;;;;64.92;32.25;;;;;;;-0.92;53.02;103332.70;1635711;84;25854;-77
2022/03/21 02:00:11;;;;;;;69.07;33.55;;;;;;;-0.94;52.95;103333.20;1629193;87;25980;-77
2022/03/21 02:02:42;;;;;;;69.53;31.93;;;;;;;-0.96;53.17;103323.63;1638387;87;27483;-75
2022/03/21 02:05:09;;;;;;;67.92;33.20;;;;;;;-0.97;53.27;103324.11;1607425;88;25825;-77
2022/03/21 02:07:36;;;;;;;73.57;34.08;;;;;;;-0.92;53.40;103318.72;1637355;86;25804;-77
2022/03/21 02:10:05;;;;;;;73.60;35.68;;;;;;;-0.89;53.42;103321.23;1639797;87;26532;-76
2022/03/21 02:12:34;;;;;;;67.47;35.23;;;;;;;-0.89;53.21;103319.47;1610841;88;25321;-76
2022/03/21 02:15:00;;;;;;;66.77;33.65;;;;;;;-0.89;53.45;103318.16;1639657;87;27525;-77
2022/03/21 02:17:29;;;;;;;66.57;33.92;;;;;;;-0.90;53.48;103320.84;1637923;86;26506;-77
2022/03/21 02:19:59;;;;;;;55.67;28.23;;;;;;;-0.93;53.45;103310.40;1637649;87;25709;-75
2022/03/21 02:23:08;;;;;;;68.65;32.48;;;;;;;-0.97;54.17;103314.91;1611784;88;25851;-77
2022/03/21 02:25:39;;;;;;;48.50;24.15;;;;;;;-1.07;54.11;103317.38;1609624;88;25962;-74
2022/03/21 02:28:08;;;;;;;47.30;24.20;;;;;;;-1.21;54.77;103319.58;1613173;88;28203;-75
2022/03/21 02:30:39;;;;;;;47.43;26.10;;;;;;;-1.25;54.64;103321.02;1640507;87;26348;-76
2022/03/21 02:33:06;;;;;;;49.33;23.55;;;;;;;-1.30;54.42;103315.89;1640240;87;25848;-76
2022/03/21 02:35:33;;;;;;;44.35;22.70;;;;;;;-1.34;54.32;103310.33;1630721;87;25974;-76
2022/03/21 02:38:01;;;;;;;40.98;21.97;;;;;;;-1.41;54.40;103310.56;1638764;86;26020;-75
2022/03/21 02:40:28;;;;;;;49.10;24.02;;;;;;;-1.52;54.60;103313.95;1637886;87;28247;-75
2022/03/21 02:42:55;;;;;;;46.55;23.00;;;;;;;-1.52;54.60;103313.95;1610049;88;25838;-75
2022/03/21 02:45:21;;;;;;;47.65;22.40;;;;;;;-1.56;54.39;103319.27;1610301;88;25907;-76
2022/03/21 02:47:47;;;;;;;43.90;21.42;;;;;;;-1.60;54.67;103317.64;1609848;87;25776;-77
2022/03/21 02:50:19;;;;;;;47.38;21.65;;;;;;;-1.60;54.67;103317.64;1609999;88;25918;-75
2022/03/21 02:52:48;;;;;;;46.23;22.58;;;;;;;-1.65;54.57;103314.27;1606614;88;28290;-75
2022/03/21 02:55:14;;;;;;;44.80;21.82;;;;;;;-1.73;54.52;103320.20;1606407;88;26560;-76
2022/03/21 02:57:40;;;;;;;40.43;20.57;;;;;;;-1.78;54.66;103331.30;1606360;87;25851;-76
2022/03/21 03:00:08;;;;;;;46.25;22.58;;;;;;;-1.78;55.05;103319.48;1609951;88;26521;-76
2022/03/21 03:02:34;;;;;;;46.28;22.42;;;;;;;-1.83;55.05;103325.30;1610154;88;26108;-77
2022/03/21 03:05:00;;;;;;;45.88;23.32;;;;;;;-1.83;55.21;103326.61;1606233;88;27572;-75
2022/03/21 03:07:27;;;;;;;56.58;25.02;;;;;;;-1.91;55.34;103311.52;1606690;87;25986;-77
2022/03/21 03:09:53;;;;;;;50.45;26.10;;;;;;;-1.89;55.34;103321.97;1606770;88;25764;-75
2022/03/21 03:12:20;;;;;;;45.15;22.85;;;;;;;-1.90;55.66;103317.16;1606433;88;26393;-76
2022/03/21 03:14:46;;;;;;;49.23;24.30;;;;;;;-1.90;55.96;103317.16;1606811;88;26696;-76
2022/03/21 03:17:12;;;;;;;43.63;22.13;;;;;;;-1.89;55.88;103322.84;1610551;88;28169;-76
2022/03/21 03:19:38;;;;;;;54.93;25.68;;;;;;;-1.89;56.15;103320.66;1611660;88;26318;-75
2022/03/21 03:22:06;;;;;;;46.90;22.93;;;;;;;-1.88;56.08;103322.40;1608449;88;25851;-74
2022/03/21 03:24:33;;;;;;;47.98;25.72;;;;;;;-1.85;56.78;103320.98;1608380;88;26547;-77
2022/03/21 03:27:00;;;;;;;50.75;25.12;;;;;;;-1.85;56.78;103320.98;1606253;87;26245;-74
2022/03/21 03:29:26;;;;;;;59.35;28.35;;;;;;;-1.93;56.35;103310.70;1609320;88;28366;-75
2022/03/21 03:31:53;;;;;;;49.23;25.10;;;;;;;-1.88;56.19;103320.61;1611012;88;25823;-76
2022/03/21 03:34:20;;;;;;;53.15;25.40;;;;;;;-1.84;56.49;103324.03;1608470;88;25651;-76
2022/03/21 03:36:46;;;;;;;55.63;28.07;;;;;;;-1.93;56.17;103316.39;1609348;88;25850;-75
2022/03/21 03:39:12;;;;;;;61.05;29.32;;;;;;;-1.94;56.46;103311.58;1612649;87;25329;-75
2022/03/21 03:41:39;;;;;;;67.00;31.15;;;;;;;-1.92;56.39;103309.78;1612996;88;27477;-76
2022/03/21 03:44:05;;;;;;;62.10;32.28;;;;;;;-1.92;56.39;103309.78;1606892;88;25944;-74
2022/03/21 03:46:32;;;;;;;63.85;31.97;;;;;;;-1.93;56.29;103310.70;1603360;88;25867;-76
2022/03/21 03:48:58;;;;;;;68.28;34.50;;;;;;;-1.93;56.36;103304.58;1614217;88;26764;-74
2022/03/21 03:51:24;;;;;;;76.45;39.25;;;;;;;-1.91;56.43;103302.77;1608006;87;25946;-76
2022/03/21 03:53:50;;;;;;;74.17;37.38;;;;;;;-1.89;56.62;103300.95;1609551;88;27686;-76
2022/03/21 03:56:16;;;;;;;73.00;38.25;;;;;;;-1.90;56.70;103307.09;1644485;86;25942;-75
2022/03/21 03:58:43;;;;;;;76.90;38.17;;;;;;;-1.92;56.78;103298.40;1615632;87;25797;-76
2022/03/21 04:01:09;;;;;;;77.78;38.67;;;;;;;-1.94;56.93;103299.77;1615558;87;25867;-76
2022/03/21 04:03:47;;;;;;;80.35;40.67;;;;;;;-1.94;56.93;103297.14;1637576;87;25802;-75
2022/03/21 04:06:20;;;;;;;77.53;37.70;;;;;;;-1.93;57.35;103297.56;1609860;87;27544;-75
2022/03/21 04:08:49;;;;;;;85.38;39.45;;;;;;;-1.93;57.35;103297.56;1606813;89;25925;-74
2022/03/21 04:11:16;;;;;;;70.90;34.13;;;;;;;-1.95;57.46;103299.38;1606697;88;25783;-76
2022/03/21 04:13:43;;;;;;;67.17;32.25;;;;;;;-1.95;57.46;103299.38;1608738;87;25881;-76
2022/03/21 04:16:10;;;;;;;63.48;33.08;;;;;;;-2.09;57.68;103291.42;1633917;85;26012;-76
2022/03/21 04:18:37;;;;;;;64.65;32.23;;;;;;;-2.07;57.67;103304.06;1632775;87;28461;-75
2022/03/21 04:21:04;;;;;;;64.30;32.83;;;;;;;-2.09;57.87;103304.55;1635098;86;26607;-76
2022/03/21 04:23:31;;;;;;;65.42;34.18;;;;;;;-2.09;57.87;103304.55;1654928;85;25596;-76
2022/03/21 04:25:58;;;;;;;74.53;34.00;;;;;;;-2.12;57.82;103303.34;1630677;86;25913;-75
2022/03/21 04:28:24;;;;;;;70.30;33.88;;;;;;;-2.19;57.83;103302.63;1641700;86;25842;-76
2022/03/21 04:30:50;;;;;;;76.15;35.38;;;;;;;-2.28;58.15;103315.12;1630621;87;28287;-76
2022/03/21 04:33:16;;;;;;;73.22;32.67;;;;;;;-2.28;58.15;103315.12;1648901;86;25791;-76
2022/03/21 04:35:45;;;;;;;61.88;32.78;;;;;;;-2.31;58.65;103312.15;1655290;85;25748;-75
2022/03/21 04:38:16;;;;;;;68.00;32.58;;;;;;;-2.31;58.65;103312.15;1658903;84;26470;-74
2022/03/21 04:40:46;;;;;;;70.03;32.08;;;;;;;-2.35;58.43;103311.34;1641040;85;25841;-75
2022/03/21 04:43:14;;;;;;;71.35;32.70;;;;;;;-2.43;58.42;103307.18;1637233;87;27514;-76
2022/03/21 04:45:42;;;;;;;72.47;34.55;;;;;;;-2.38;58.65;103314.50;1637313;87;25850;-74
2022/03/21 04:48:10;;;;;;;71.82;36.73;;;;;;;-2.37;58.66;103310.52;1636871;86;25964;-75
2022/03/21 04:50:37;;;;;;;80.77;38.55;;;;;;;-2.35;58.71;103315.27;1637283;87;25787;-75
2022/03/21 04:53:04;;;;;;;77.65;38.40;;;;;;;-2.30;58.96;103312.55;1636966;87;25861;-75
2022/03/21 04:55:32;;;;;;;77.95;38.10;;;;;;;-2.24;59.03;103308.89;1637326;87;27470;-74
2022/03/21 04:58:00;;;;;;;84.80;39.75;;;;;;;-2.26;59.17;103306.75;1637135;86;25995;-76
2022/03/21 05:00:27;;;;;;;83.03;39.65;;;;;;;-2.23;59.21;103307.55;1637188;87;25749;-79
2022/03/21 05:02:55;;;;;;;102.92;44.75;;;;;;;-2.18;59.36;103309.59;1640442;87;26775;-76
2022/03/21 05:05:21;;;;;;;100.53;44.73;;;;;;;-2.15;59.38;103309.53;1641895;87;25831;-75
2022/03/21 05:07:53;;;;;;;98.00;45.20;;;;;;;-2.10;59.36;103308.97;1641179;87;27435;-76
2022/03/21 05:10:22;;;;;;;99.90;46.25;;;;;;;-2.06;59.48;103314.98;1646946;85;26056;-77
2022/03/21 05:12:50;;;;;;;103.00;48.68;;;;;;;-1.98;59.85;103309.08;1650496;86;26555;-77
2022/03/21 05:15:17;;;;;;;106.60;48.85;;;;;;;-1.98;59.85;103309.08;1630177;87;26541;-77
2022/03/21 05:17:43;;;;;;;103.20;49.45;;;;;;;-1.95;60.25;103308.56;1630440;86;25777;-76
2022/03/21 05:20:17;;;;;;;102.55;49.67;;;;;;;-1.95;60.25;103308.56;1630348;87;27637;-77
2022/03/21 05:31:03;;;;;;;84.52;42.00;;;;;;;-1.88;60.75;103328.48;1630652;87;25804;-77
2022/03/21 05:36:17;;;;;;;88.20;41.90;;;;;;;-1.81;60.73;103331.81;1630595;86;26221;-76
2022/03/21 05:38:45;;;;;;;90.32;42.70;;;;;;;-1.81;60.73;103331.81;1631026;87;26586;-76
2022/03/21 05:41:12;;;;;;;93.90;45.10;;;;;;;-1.79;60.63;103336.58;1630583;87;25948;-75
2022/03/21 05:43:38;;;;;;;101.75;48.63;;;;;;;-1.70;60.25;103331.95;1630509;87;25319;-76
2022/03/21 05:46:04;;;;;;;101.22;48.38;;;;;;;-1.70;60.25;103331.95;1630723;86;27620;-76
2022/03/21 05:48:50;;;;;;;114.55;55.80;;;;;;;-1.69;60.56;103323.62;1630545;87;26513;-76
2022/03/21 05:51:19;;;;;;;107.45;49.70;;;;;;;-1.54;60.55;103335.02;1630458;87;26624;-75
2022/03/21 05:53:46;;;;;;;121.10;54.00;;;;;;;-1.45;60.47;103333.91;1630681;87;25882;-75
2022/03/21 05:56:13;;;;;;;118.55;54.45;;;;;;;-1.43;60.31;103325.04;1630704;86;25984;-75
2022/03/21 05:58:41;;;;;;;113.03;53.42;;;;;;;-1.28;60.54;103334.28;1630732;87;28425;-78
2022/03/21 06:01:07;;;;;;;119.93;53.63;;;;;;;-1.19;60.67;103332.67;1629687;87;26008;-79
2022/03/21 06:03:33;;;;;;;116.25;53.95;;;;;;;-1.11;60.61;103332.02;1637632;87;26483;-77
2022/03/21 06:06:00;;;;;;;104.90;51.77;;;;;;;-1.01;60.66;103334.77;1637806;86;25832;-78
2022/03/21 06:08:26;;;;;;;99.92;49.05;;;;;;;-0.92;60.79;103335.81;1637613;87;26595;-78
2022/03/21 06:11:05;;;;;;;93.78;46.77;;;;;;;-0.85;61.18;103338.20;1637640;87;27478;-78
2022/03/21 06:13:36;;;;;;;100.95;45.58;;;;;;;-0.78;61.61;103334.92;1637568;87;25901;-78
2022/03/21 06:16:07;;;;;;;102.78;48.45;;;;;;;-0.70;61.68;103338.17;1640537;85;25744;-78
2022/03/21 06:18:35;;;;;;;96.72;46.98;;;;;;;-0.63;61.54;103338.39;1652651;86;25732;-79
2022/03/21 06:21:04;;;;;;;107.20;48.63;;;;;;;-0.53;61.81;103340.26;1652376;86;25832;-78
2022/03/21 06:23:30;;;;;;;108.95;49.18;;;;;;;-0.44;61.63;103339.97;1649159;86;27454;-78
2022/03/21 06:25:58;;;;;;;116.35;52.70;;;;;;;-0.36;61.62;103338.81;1642468;85;25816;-79
2022/03/21 06:28:27;;;;;;;130.15;57.30;;;;;;;-0.27;62.02;103345.55;1642801;87;25837;-80
2022/03/21 06:30:54;;;;;;;115.50;55.03;;;;;;;-0.18;62.09;103343.48;1642284;87;25823;-79
2022/03/21 06:33:25;;;;;;;101.53;51.53;;;;;;;-0.09;62.24;103348.45;1606526;88;25819;-78
2022/03/21 06:35:52;;;;;;;105.25;48.68;;;;;;;0.03;62.09;103351.11;1611784;88;28202;-79
2022/03/21 06:38:18;;;;;;;97.78;45.88;;;;;;;0.15;61.73;103345.41;1608891;87;25956;-79
2022/03/21 06:40:44;;;;;;;97.75;47.25;;;;;;;0.29;61.43;103351.53;1611855;88;25768;-76
2022/03/21 06:43:12;;;;;;;100.97;48.15;;;;;;;0.42;61.32;103354.13;1608474;88;25844;-76
2022/03/21 06:45:39;;;;;;;97.95;46.83;;;;;;;0.55;61.27;103353.65;1601610;88;25391;-76
2022/03/21 06:48:05;;;;;;;94.60;45.15;;;;;;;0.68;61.34;103354.06;1608522;87;27490;-76
2022/03/21 06:50:32;;;;;;;93.97;46.37;;;;;;;0.81;60.86;103355.33;1609923;88;26528;-75
2022/03/21 06:52:59;;;;;;;91.42;43.85;;;;;;;0.95;60.52;103360.94;1607754;88;25955;-76
2022/03/21 06:55:25;;;;;;;91.80;44.25;;;;;;;1.09;60.22;103363.90;1614858;88;25800;-77
2022/03/21 06:57:52;;;;;;;95.03;43.23;;;;;;;1.22;60.18;103367.79;1637626;85;26345;-76
2022/03/21 07:00:18;;;;;;;77.90;40.58;;;;;;;1.36;59.76;103362.84;1637375;87;27703;-76
2022/03/21 07:02:46;;;;;;;82.53;39.83;;;;;;;1.49;59.88;103361.44;1612256;88;25877;-76
2022/03/21 07:05:12;;;;;;;74.95;38.10;;;;;;;1.65;59.69;103363.47;1641073;87;26568;-76
2022/03/21 07:07:39;;;;;;;79.37;38.58;;;;;;;1.79;58.50;103364.63;1638285;87;26007;-75
2022/03/21 07:10:09;;;;;;;87.62;42.33;;;;;;;1.93;58.10;103366.22;1610941;88;25934;-77
2022/03/21 07:12:35;;;;;;;77.75;40.70;;;;;;;2.07;58.17;103365.19;1628740;87;27481;-75
2022/03/21 07:15:03;;;;;;;86.30;42.43;;;;;;;2.21;57.67;103360.62;1638650;87;25801;-75
2022/03/21 07:17:29;;;;;;;95.65;46.53;;;;;;;2.34;57.32;103359.16;1638021;86;26049;-76
2022/03/21 07:19:55;;;;;;;110.05;50.90;;;;;;;2.45;57.05;103360.88;1608890;88;25912;-76
2022/03/21 07:22:22;;;;;;;80.83;42.85;;;;;;;2.59;56.94;103360.28;1608192;88;25976;-75
2022/03/21 07:24:49;;;;;;;74.92;39.27;;;;;;;2.71;56.84;103351.78;1608474;88;27486;-75
2022/03/21 07:27:16;;;;;;;74.15;37.73;;;;;;;2.85;56.06;103354.65;1608451;87;25936;-76
2022/03/21 07:29:43;;;;;;;79.00;40.33;;;;;;;2.99;56.18;103358.87;1611330;88;25817;-76
2022/03/21 07:32:09;;;;;;;86.35;43.87;;;;;;;3.11;56.10;103359.15;1640305;87;26142;-76
2022/03/21 07:34:35;;;;;;;85.40;41.60;;;;;;;3.24;55.97;103362.08;1609437;88;25891;-76
2022/03/21 07:37:02;;;;;;;81.10;42.80;;;;;;;3.36;55.93;103354.03;1610925;87;28302;-76
2022/03/21 07:39:29;;;;;;;78.80;39.65;;;;;;;3.51;56.12;103363.40;1641128;86;25974;-76
2022/03/21 07:42:00;;;;;;;77.42;39.00;;;;;;;3.65;55.86;103360.09;1607898;88;26290;-76
2022/03/21 07:47:17;;;;;;;78.25;38.83;;;;;;;3.95;54.93;103357.25;1610869;87;25911;-75
2022/03/21 07:49:46;;;;;;;77.82;38.45;;;;;;;4.09;55.17;103357.86;1639092;87;28423;-75
2022/03/21 07:52:13;;;;;;;71.42;36.53;;;;;;;4.23;54.58;103361.55;1608374;88;25931;-76
2022/03/21 07:54:42;;;;;;;73.72;34.88;;;;;;;4.37;54.23;103363.47;1608631;88;25893;-75
2022/03/21 07:57:09;;;;;;;70.85;34.40;;;;;;;4.49;53.81;103365.01;1611037;86;25915;-75
2022/03/21 07:59:35;;;;;;;61.80;32.65;;;;;;;4.61;53.22;103364.84;1641795;87;25883;-77
2022/03/21 08:02:05;;;;;;;67.82;34.55;;;;;;;4.75;52.96;103364.12;1606864;88;27488;-76
2022/03/21 08:04:32;;;;;;;62.23;33.40;;;;;;;4.89;52.47;103366.88;1610778;88;25759;-75
2022/03/21 08:06:59;;;;;;;62.17;32.67;;;;;;;5.02;52.46;103367.47;1639330;87;25947;-77
2022/03/21 08:09:29;;;;;;;56.10;30.92;;;;;;;5.15;52.30;103362.34;1641996;86;25843;-75
2022/03/21 08:11:57;;;;;;;74.17;35.40;;;;;;;5.28;51.91;103359.39;1611466;88;26116;-76
2022/03/21 08:14:24;;;;;;;64.42;32.28;;;;;;;5.40;51.22;103361.36;1609079;87;27464;-76
2022/03/21 08:16:51;;;;;;;61.25;30.95;;;;;;;5.52;51.48;103361.98;1609987;87;26094;-76
2022/03/21 08:19:19;;;;;;;60.20;30.97;;;;;;;5.64;50.78;103361.30;1604346;88;26001;-76
2022/03/21 08:21:45;;;;;;;53.55;28.73;;;;;;;5.77;50.43;103354.80;1636520;86;25936;-76
2022/03/21 08:24:12;;;;;;;58.45;30.70;;;;;;;5.89;50.07;103352.31;1644981;85;25835;-75
2022/03/21 08:26:40;;;;;;;57.00;29.98;;;;;;;6.02;50.06;103350.66;1658072;84;26995;-75
2022/03/21 08:29:08;;;;;;;58.45;29.63;;;;;;;6.16;49.68;103353.34;1642142;87;26495;-76
2022/03/21 08:31:34;;;;;;;63.05;31.87;;;;;;;6.29;49.50;103348.63;1637484;87;26002;-76
2022/03/21 08:34:03;;;;;;;58.52;29.12;;;;;;;6.42;48.92;103346.91;1639195;87;25815;-77
2022/03/21 08:36:30;;;;;;;53.00;28.25;;;;;;;6.52;48.53;103348.09;1639748;87;26079;-76
2022/03/21 08:38:56;;;;;;;58.85;30.37;;;;;;;6.60;48.43;103340.02;1614034;88;27465;-76
2022/03/21 08:41:22;;;;;;;63.30;31.68;;;;;;;6.69;47.98;103342.58;1636984;87;25969;-76
2022/03/21 08:43:49;;;;;;;54.20;30.27;;;;;;;6.80;48.17;103343.61;1641278;87;25875;-76
2022/03/21 08:46:15;;;;;;;57.93;31.87;;;;;;;6.92;48.54;103335.34;1614947;87;26746;-76
2022/03/21 08:51:27;;;;;;;56.53;31.00;;;;;;;7.14;47.50;103334.36;1642160;86;28302;-76
2022/03/21 08:53:53;;;;;;;55.08;31.12;;;;;;;7.27;47.80;103333.09;1638543;87;26076;-76
2022/03/21 08:56:19;;;;;;;54.40;29.30;;;;;;;7.38;47.30;103330.56;1639772;87;25922;-77
2022/03/21 08:58:46;;;;;;;50.25;27.82;;;;;;;7.50;47.00;103327.12;1614755;88;25876;-76
2022/03/21 09:01:12;;;;;;;49.53;27.10;;;;;;;7.60;47.08;103321.55;1614921;88;26101;-76
2022/03/21 09:03:38;;;;;;;52.67;28.55;;;;;;;7.70;46.44;103326.64;1636669;87;28049;-75
2022/03/21 09:06:04;;;;;;;47.33;26.45;;;;;;;7.77;46.15;103318.14;1640989;87;26009;-76
2022/03/21 09:08:31;;;;;;;52.85;28.12;;;;;;;7.86;45.81;103321.14;1638491;87;26375;-78
2022/03/21 09:10:57;;;;;;;44.58;25.08;;;;;;;7.95;45.47;103312.52;1637473;87;25832;-77
2022/03/21 09:13:23;;;;;;;44.60;27.67;;;;;;;8.01;45.04;103310.30;1611875;88;25771;-75
2022/03/21 09:15:49;;;;;;;51.02;26.12;;;;;;;8.11;45.19;103314.51;1607921;88;27475;-76
2022/03/21 09:18:15;;;;;;;49.48;28.00;;;;;;;8.22;44.86;103314.16;1610573;88;25554;-77
2022/03/21 09:20:42;;;;;;;46.53;26.60;;;;;;;8.30;43.90;103313.18;1609516;88;25931;-76
2022/03/21 09:23:08;;;;;;;42.90;24.92;;;;;;;8.39;44.26;103314.36;1614898;88;25915;-77
2022/03/21 09:25:34;;;;;;;47.62;26.55;;;;;;;8.53;44.63;103312.42;1608466;87;26561;-75
2022/03/21 09:28:00;;;;;;;47.38;26.55;;;;;;;8.69;44.36;103311.34;1606451;87;27525;-76
2022/03/21 09:30:26;;;;;;;44.48;25.10;;;;;;;8.80;44.16;103306.96;1606026;88;25956;-78
2022/03/21 09:32:52;;;;;;;42.95;26.12;;;;;;;8.87;43.14;103310.91;1608332;88;26520;-76
2022/03/21 09:35:19;;;;;;;43.87;26.40;;;;;;;8.96;42.41;103307.55;1610525;88;25949;-76
2022/03/21 09:37:45;;;;;;;43.00;25.80;;;;;;;9.05;43.23;103307.38;1606125;87;25896;-77
2022/03/21 09:40:12;;;;;;;45.35;25.10;;;;;;;9.15;43.38;103306.59;1606435;88;27485;-76
2022/03/21 09:42:39;;;;;;;42.20;24.47;;;;;;;9.25;42.78;103302.30;1606464;88;25885;-75
2022/03/21 09:45:08;;;;;;;39.30;23.57;;;;;;;9.38;42.83;103304.92;1608373;88;25700;-77
2022/03/21 09:50:20;;;;;;;45.83;24.18;;;;;;;9.60;42.50;103294.82;1637089;86;25961;-79
2022/03/21 09:52:46;;;;;;;46.55;25.20;;;;;;;9.68;42.41;103297.77;1648170;85;27464;-77
2022/03/21 09:55:13;;;;;;;42.58;23.70;;;;;;;9.77;42.05;103295.23;1654145;85;26606;-77
2022/03/21 09:57:39;;;;;;;35.50;21.95;;;;;;;9.82;41.96;103292.20;1640937;85;26620;-76
2022/03/21 10:00:07;;;;;;;40.25;23.15;;;;;;;9.88;41.33;103292.59;1629155;87;25766;-78
2022/03/21 10:02:41;;;;;;;32.28;18.50;;;;;;;9.98;40.14;103295.44;1619519;87;25992;-75
2022/03/21 10:05:07;;;;;;;32.93;20.02;;;;;;;10.05;38.26;103280.63;1637545;86;27478;-76
2022/03/21 10:07:33;;;;;;;35.03;21.48;;;;;;;10.17;39.20;103282.85;1610479;87;26107;-78
2022/03/21 10:10:19;;;;;;;37.23;20.50;;;;;;;10.25;39.62;103275.92;1640317;87;25804;-77
2022/03/21 10:12:43;;;;;;;36.10;19.15;;;;;;;10.33;39.78;103282.04;1637608;87;25946;-76
2022/03/21 10:15:10;;;;;;;35.28;19.90;;;;;;;10.37;39.55;103277.63;1609714;88;26555;-77
2022/03/21 10:17:37;;;;;;;33.50;20.60;;;;;;;10.44;39.56;103269.97;1608763;87;27482;-76
2022/03/21 10:20:08;;;;;;;37.60;21.77;;;;;;;10.49;39.70;103271.81;1609827;87;25928;-78
2022/03/21 10:22:43;;;;;;;43.13;22.63;;;;;;;10.58;39.55;103272.42;1604881;88;25772;-77
2022/03/21 10:25:11;;;;;;;36.83;22.30;;;;;;;10.64;39.42;103264.75;1639804;87;26144;-79
2022/03/21 10:27:41;;;;;;;39.10;20.57;;;;;;;10.71;39.02;103260.58;1641562;87;25795;-76
2022/03/21 10:30:18;;;;;;;36.13;21.02;;;;;;;10.75;38.03;103259.39;1639635;87;27472;-77
2022/03/21 10:32:49;;;;;;;38.40;20.77;;;;;;;10.76;38.00;103254.85;1630317;87;26169;-77
2022/03/21 10:35:17;;;;;;;;;;;;;;;10.80;38.34;103253.14;1638921;87;25779;-77
2022/03/21 10:38:01;;;;;;;37.35;20.00;;;;;;;10.91;38.00;103247.39;1639638;87;25839;-76
2022/03/21 10:40:37;;;;;;;31.55;18.32;;;;;;;11.00;38.42;103247.98;1610379;88;26092;-76
2022/03/21 10:43:10;;;;;;;41.55;23.95;;;;;;;11.10;38.16;103243.60;1642784;87;27469;-77
2022/03/21 10:45:52;;;;;;;45.40;24.50;;;;;;;11.18;38.46;103246.50;1603754;88;26022;-78
2022/03/21 10:48:29;;;;;;;45.88;26.35;;;;;;;11.24;37.93;103233.91;1638070;85;25869;-76
2022/03/21 10:50:58;;;;;;;47.03;26.27;;;;;;;11.28;38.10;103240.24;1610077;88;26641;-76
2022/03/21 10:53:28;;;;;;;40.43;22.35;;;;;;;11.32;37.46;103230.95;1606847;88;25865;-77
2022/03/21 10:56:03;;;;;;;35.90;21.50;;;;;;;11.36;37.70;103229.72;1609046;88;28380;-77
2022/03/21 10:58:42;;;;;;;35.90;21.62;;;;;;;11.41;37.26;103228.00;1606498;88;26522;-76
2022/03/21 11:01:24;;;;;;;37.00;21.57;;;;;;;11.46;37.56;103219.91;1611009;88;25923;-77
2022/03/21 11:03:56;;;;;;;37.53;21.93;;;;;;;11.53;37.00;103221.59;1604398;88;25787;-77
2022/03/21 11:06:23;;;;;;;35.43;20.27;;;;;;;11.59;36.67;103222.41;1640611;85;27063;-75
2022/03/21 11:08:52;;;;;;;38.65;21.17;;;;;;;11.64;37.07;103212.14;1640988;87;28074;-76
2022/03/21 11:11:19;;;;;;;28.87;18.62;;;;;;;11.70;36.65;103211.64;1606482;88;25876;-76
2022/03/21 11:13:47;;;;;;;34.25;20.15;;;;;;;11.73;36.53;103207.37;1607782;88;25934;-76
2022/03/21 11:16:18;;;;;;;36.13;20.23;;;;;;;11.73;36.29;103203.34;1611290;87;25861;-76
2022/03/21 11:18:47;;;;;;;36.45;20.88;;;;;;;11.76;35.30;103204.92;1640973;87;25835;-76
2022/03/21 11:21:13;;;;;;;30.82;19.05;;;;;;;11.74;35.82;103203.68;1639002;87;27466;-76
2022/03/21 11:23:41;;;;;;;34.58;21.57;;;;;;;11.76;36.05;103201.72;1639766;87;25928;-75
2022/03/21 11:26:42;;;;;;;35.45;20.45;;;;;;;11.79;35.56;103196.58;1613877;87;25950;-77
2022/03/21 11:30:03;;;;;;;34.00;20.62;;;;;;;11.83;35.31;103193.50;1640378;87;26569;-76
2022/03/21 11:33:09;;;;;;;36.42;21.37;;;;;;;11.88;35.80;103195.31;1609057;88;25910;-76
2022/03/21 11:35:36;;;;;;;33.65;21.52;;;;;;;11.92;34.26;103191.86;1611527;88;27461;-76
2022/03/21 11:38:24;;;;;;;34.63;21.00;;;;;;;11.90;35.21;103183.94;1640591;85;26160;-77
2022/03/21 11:40:52;;;;;;;35.78;21.15;;;;;;;11.96;34.94;103186.09;1602119;88;26447;-77